أريحا, Jordan

10:20 PM EET on دسمبر 10, 2016 (GMT +0200)
Al Umaweyeen | | Change Station

Elev 0 ft 31.94 °N, 35.88 °E | Updated 6 minutes ago

صافية
صافية
51.4 °F
Feels Like 51.4 °F
N
2.5
ريح متغير ريح from شمال
Gusts 7.5 mph

هذا اليوم
High -- | Low -- °F
--% Chance of Precip.
Yesterday
High -- | Low -- °F
Precip. -- في
الضغط 30.18 في
وضوح الرؤية 3.1 أميال
سحابات غائم كلياً 3000 ft
نقطة الندى 45 °F
الرطوبة 79%
Rainfall 0.00 في
عمق الثلج Not available.
6:27 AM 4:33 PM
الأحدب الأول, 86% visible
METAR OJAM 102000Z 28010KT 5000 HZ BKN030 08/06 Q1022 NOSIG
الضغط 30.18 في
وضوح الرؤية 3.1 أميال
سحابات غائم كلياً 3000 ft
نقطة الندى 45 °F
الرطوبة 79%
Rainfall 0.00 في
عمق الثلج Not available.
6:27 AM 4:33 PM
الأحدب الأول, 86% visible
METAR OJAM 102000Z 28010KT 5000 HZ BKN030 08/06 Q1022 NOSIG

10-Day Weather Forecast

No radar image for this location.
×

Almanac

علم الفلك

Dec. 10, 2016 Rise Set
Actual Time
Civil Twilight
Nautical Twilight
Astronomical Twilight
قمر
Length Of Visible Light
طول الیوم
Tomorrow will be .
, % of the Moon is Illuminated

Today's Extremes

Country Highs Country Lows

Community

WunderPhotos

Upload Photos

1,956,651 photos uploaded!

WunderBlog® & News

Nearby

جودة الهواء

  جودة الهواء AQ Index Pollutant
Not available.

عمق الثلج

Station Depth Elevation

Earthquake Activity

City Distance Mag. Time & Date
Minimum magnitude displayed is 2.5.

Coastal Water Temperatures

مكان درجات الحرارة

Stations

Nearby Weather Stations

Station Location الحرارة رياح باردة نقطة الندى الرطوبة ريح Precip. Elev تحديث Type